createdAt,value
2018-03-30T00:02:24.499Z,54.57
2018-03-30T00:04:53.059Z,54.14
2018-03-30T00:07:20.876Z,54.58
2018-03-30T00:09:56.340Z,54.15
2018-03-30T00:12:24.822Z,54.98
2018-03-30T00:14:53.357Z,54.60
2018-03-30T00:17:20.972Z,53.86
2018-03-30T00:19:48.992Z,55.14
2018-03-30T00:22:16.398Z,53.87
2018-03-30T00:24:43.800Z,53.93
2018-03-30T00:27:11.207Z,53.86
2018-03-30T00:29:38.589Z,54.19
2018-03-30T00:32:05.972Z,54.29
2018-03-30T00:34:33.586Z,53.80
2018-03-30T00:37:01.197Z,53.71
2018-03-30T00:39:28.639Z,54.45
2018-03-30T00:41:56.043Z,54.02
2018-03-30T00:44:23.444Z,54.34
2018-03-30T00:46:50.864Z,54.91
2018-03-30T00:49:19.142Z,54.47
2018-03-30T00:51:46.546Z,55.14
2018-03-30T00:54:13.941Z,54.95
2018-03-30T00:56:41.340Z,54.47
2018-03-30T00:59:08.766Z,54.09
2018-03-30T01:01:36.203Z,54.09
2018-03-30T01:04:03.623Z,54.83
2018-03-30T01:06:31.018Z,54.61
2018-03-30T01:08:58.407Z,55.49
2018-03-30T01:11:26.222Z,55.87
2018-03-30T01:13:54.633Z,54.77
2018-03-30T01:16:22.029Z,55.13
2018-03-30T01:18:49.429Z,54.95
2018-03-30T01:21:16.833Z,54.94
2018-03-30T01:23:44.901Z,55.08
2018-03-30T01:26:12.310Z,55.19
2018-03-30T01:28:39.694Z,54.66
2018-03-30T01:31:07.122Z,54.80
2018-03-30T01:33:34.954Z,54.40
2018-03-30T01:36:02.342Z,54.87
2018-03-30T01:38:29.773Z,55.02
2018-03-30T01:40:58.279Z,55.01
2018-03-30T01:43:25.666Z,55.37
2018-03-30T01:45:53.081Z,55.76
2018-03-30T01:48:20.466Z,55.62
2018-03-30T01:50:47.859Z,55.48
2018-03-30T01:53:15.298Z,56.36
2018-03-30T01:55:42.755Z,56.71
2018-03-30T01:58:10.497Z,57.19
2018-03-30T02:00:37.889Z,56.49
2018-03-30T02:03:05.293Z,54.56
2018-03-30T02:05:32.666Z,54.92
2018-03-30T02:08:00.252Z,55.20
2018-03-30T02:10:27.709Z,54.24
2018-03-30T02:12:55.095Z,54.58
2018-03-30T02:15:22.656Z,54.94
2018-03-30T02:17:50.115Z,55.28
2018-03-30T02:20:17.507Z,55.90
2018-03-30T02:22:45.254Z,56.51
2018-03-30T02:25:12.695Z,55.56
2018-03-30T02:27:40.081Z,54.78
2018-03-30T02:30:07.466Z,55.95
2018-03-30T02:32:34.878Z,56.46
2018-03-30T02:35:02.345Z,55.50
2018-03-30T02:37:29.772Z,55.13
2018-03-30T02:39:57.158Z,54.22
2018-03-30T02:42:25.206Z,56.25
2018-03-30T02:44:52.662Z,56.12
2018-03-30T02:47:20.080Z,55.51
2018-03-30T02:49:47.732Z,56.32
2018-03-30T02:52:15.232Z,56.08
2018-03-30T02:54:42.787Z,56.11
2018-03-30T02:57:11.903Z,55.26
2018-03-30T02:59:39.299Z,56.34
2018-03-30T03:02:06.717Z,57.15
2018-03-30T03:04:34.389Z,57.50
2018-03-30T03:07:01.817Z,56.37
2018-03-30T03:09:29.411Z,56.68
2018-03-30T03:11:56.832Z,56.67
2018-03-30T03:14:24.233Z,55.44
2018-03-30T03:16:51.682Z,57.17
2018-03-30T03:19:19.073Z,56.44
2018-03-30T03:21:46.578Z,57.02
2018-03-30T03:24:14.337Z,56.43
2018-03-30T03:26:41.771Z,57.50
2018-03-30T03:29:09.175Z,57.04
2018-03-30T03:31:36.778Z,56.28
2018-03-30T03:34:04.177Z,56.24
2018-03-30T03:36:31.543Z,56.42
2018-03-30T03:38:58.966Z,56.66
2018-03-30T03:41:26.348Z,55.93
2018-03-30T03:43:54.764Z,57.03
2018-03-30T03:46:22.141Z,57.61
2018-03-30T03:48:49.531Z,57.36
2018-03-30T03:51:17.033Z,58.03
2018-03-30T03:53:44.622Z,56.21
2018-03-30T03:56:12.153Z,56.50
2018-03-30T03:58:39.830Z,56.36
2018-03-30T04:01:07.412Z,56.15
2018-03-30T04:03:34.774Z,56.36
2018-03-30T04:06:02.181Z,56.95
2018-03-30T04:08:29.650Z,56.14
2018-03-30T04:10:57.248Z,55.69
2018-03-30T04:13:24.797Z,57.09
2018-03-30T04:15:52.338Z,56.80
2018-03-30T04:18:19.742Z,57.39
2018-03-30T04:20:47.315Z,57.60
2018-03-30T04:23:14.701Z,57.50
2018-03-30T04:25:42.083Z,57.29
2018-03-30T04:28:12.557Z,56.95
2018-03-30T04:30:40.087Z,56.09
2018-03-30T04:33:07.478Z,56.66
2018-03-30T04:35:34.874Z,56.35
2018-03-30T04:38:02.274Z,55.29
2018-03-30T04:40:29.677Z,55.92
2018-03-30T04:42:57.048Z,57.12
2018-03-30T04:45:24.442Z,58.33
2018-03-30T04:47:51.863Z,57.45
2018-03-30T04:50:19.251Z,57.55
2018-03-30T04:52:46.669Z,57.75
2018-03-30T04:55:14.741Z,56.81
2018-03-30T04:57:42.125Z,56.28
2018-03-30T05:00:09.525Z,57.10
2018-03-30T05:02:36.909Z,58.15
2018-03-30T05:05:04.334Z,58.38
2018-03-30T05:07:31.704Z,57.43
2018-03-30T05:09:59.117Z,58.46
2018-03-30T05:12:26.510Z,57.71
2018-03-30T05:14:53.884Z,57.76
2018-03-30T05:17:21.296Z,58.96
2018-03-30T05:19:48.940Z,57.98
2018-03-30T05:22:16.329Z,57.30
2018-03-30T05:24:44.776Z,57.68
2018-03-30T05:27:12.145Z,59.90
2018-03-30T05:29:39.558Z,58.64
2018-03-30T05:32:06.963Z,57.85
2018-03-30T05:34:34.371Z,58.93
2018-03-30T05:37:01.925Z,58.93
2018-03-30T05:39:29.330Z,58.77
2018-03-30T05:41:56.754Z,59.26
2018-03-30T05:44:24.174Z,60.08
2018-03-30T05:46:51.614Z,58.49
2018-03-30T05:49:19.013Z,59.17
2018-03-30T05:51:46.393Z,58.51
2018-03-30T05:54:14.620Z,58.26
2018-03-30T05:56:42.612Z,59.85
2018-03-30T05:59:10.048Z,58.84
2018-03-30T06:01:37.931Z,57.78
2018-03-30T06:04:05.300Z,58.41
2018-03-30T06:06:32.768Z,58.55
2018-03-30T06:09:00.157Z,58.95
2018-03-30T06:11:27.597Z,59.88
2018-03-30T06:13:54.973Z,58.78
2018-03-30T06:16:23.750Z,57.50
2018-03-30T06:18:51.149Z,56.88
2018-03-30T06:21:18.563Z,58.27
2018-03-30T06:23:45.942Z,57.94
2018-03-30T06:26:13.422Z,57.47
2018-03-30T06:28:40.832Z,58.58
2018-03-30T06:31:08.238Z,58.34
2018-03-30T06:33:35.623Z,57.99
2018-03-30T06:36:02.994Z,58.43
2018-03-30T06:38:30.380Z,58.85
2018-03-30T06:40:57.788Z,59.20
2018-03-30T06:43:25.193Z,59.56
2018-03-30T06:45:52.584Z,59.17
2018-03-30T06:48:20.700Z,59.90
2018-03-30T06:50:48.093Z,59.74
2018-03-30T06:53:15.518Z,58.92
2018-03-30T06:55:43.262Z,58.80
2018-03-30T06:58:10.747Z,58.38
2018-03-30T07:00:38.120Z,58.27
2018-03-30T07:03:05.510Z,59.00
2018-03-30T07:05:32.900Z,58.46
2018-03-30T07:08:00.773Z,57.83
2018-03-30T07:10:28.153Z,57.80
2018-03-30T07:12:55.568Z,58.17
2018-03-30T07:15:22.952Z,57.77
2018-03-30T07:17:50.338Z,57.61
2018-03-30T07:20:17.747Z,57.79
2018-03-30T07:22:46.297Z,57.73
2018-03-30T07:25:13.685Z,58.25
2018-03-30T07:27:41.068Z,57.45
2018-03-30T07:30:08.460Z,56.91
2018-03-30T07:32:35.859Z,56.43
2018-03-30T07:35:03.425Z,57.25
2018-03-30T07:37:30.823Z,57.51
2018-03-30T07:39:58.274Z,57.01
2018-03-30T07:42:25.709Z,56.54
2018-03-30T07:44:53.124Z,56.53
2018-03-30T07:47:20.537Z,56.45
2018-03-30T07:49:47.957Z,56.11
2018-03-30T07:52:15.674Z,56.67
2018-03-30T07:54:43.229Z,56.43
2018-03-30T07:57:10.648Z,56.55
2018-03-30T07:59:38.052Z,56.39
2018-03-30T08:02:05.437Z,56.43
2018-03-30T08:04:32.843Z,56.76
2018-03-30T08:07:00.229Z,56.93
2018-03-30T08:09:27.616Z,56.95
2018-03-30T08:11:57.101Z,57.11
2018-03-30T08:14:25.249Z,57.32
2018-03-30T08:16:52.672Z,57.03
2018-03-30T08:19:20.058Z,56.66
2018-03-30T08:21:47.449Z,56.57
2018-03-30T08:24:15.571Z,56.36
2018-03-30T08:26:42.970Z,56.28
2018-03-30T08:29:10.348Z,55.90
2018-03-30T08:31:37.754Z,55.71
2018-03-30T08:34:05.121Z,56.03
2018-03-30T08:36:32.545Z,55.72
2018-03-30T08:39:00.422Z,55.70
2018-03-30T08:41:27.962Z,54.90
2018-03-30T08:43:55.389Z,54.98
2018-03-30T08:46:23.734Z,54.24
2018-03-30T08:48:51.114Z,54.21
2018-03-30T08:51:18.524Z,54.30
2018-03-30T08:53:45.917Z,54.34
2018-03-30T08:56:13.350Z,53.95
2018-03-30T08:58:41.082Z,53.14
2018-03-30T09:01:08.473Z,52.78
2018-03-30T09:03:35.972Z,53.41
2018-03-30T09:06:03.516Z,52.95
2018-03-30T09:08:30.921Z,52.36
2018-03-30T09:10:58.307Z,53.16
2018-03-30T09:13:25.737Z,52.51
2018-03-30T09:15:53.124Z,52.77
2018-03-30T09:18:20.534Z,52.49
2018-03-30T09:20:47.960Z,52.57
2018-03-30T09:23:16.265Z,52.31
2018-03-30T09:25:44.790Z,52.12
2018-03-30T09:28:12.274Z,52.18
2018-03-30T09:30:39.656Z,51.82
2018-03-30T09:33:07.193Z,52.10
2018-03-30T09:35:34.582Z,52.40
2018-03-30T09:38:01.979Z,52.19
2018-03-30T09:40:29.445Z,51.87
2018-03-30T09:42:56.874Z,51.47
2018-03-30T09:45:24.304Z,50.86
2018-03-30T09:47:51.693Z,49.95
2018-03-30T09:50:19.262Z,50.74
2018-03-30T09:52:46.659Z,49.82
2018-03-30T09:55:14.042Z,50.15
2018-03-30T09:57:41.454Z,48.67
2018-03-30T10:00:08.861Z,48.85
2018-03-30T10:02:38.154Z,48.98
2018-03-30T10:05:06.058Z,47.83
2018-03-30T10:07:33.456Z,49.36
2018-03-30T10:10:00.852Z,48.07
2018-03-30T10:12:28.302Z,47.37
2018-03-30T10:14:55.698Z,47.21
2018-03-30T10:17:23.236Z,47.33
2018-03-30T10:20:03.983Z,46.67
2018-03-30T10:22:42.308Z,47.41
2018-03-30T10:25:10.484Z,46.42
2018-03-30T10:27:37.937Z,46.17
2018-03-30T10:30:05.579Z,47.18
2018-03-30T10:32:33.000Z,45.35
2018-03-30T10:35:00.384Z,45.67
2018-03-30T10:37:27.784Z,46.75
2018-03-30T10:39:55.185Z,45.57
2018-03-30T10:42:22.583Z,44.77
2018-03-30T10:44:50.022Z,45.14
2018-03-30T10:47:17.425Z,44.64
2018-03-30T10:49:44.866Z,44.08
2018-03-30T10:52:12.303Z,43.57
2018-03-30T10:54:39.713Z,44.35
2018-03-30T10:57:07.166Z,43.36
2018-03-30T10:59:36.050Z,44.05
2018-03-30T11:02:06.386Z,43.78
2018-03-30T11:04:33.778Z,43.42
2018-03-30T11:07:01.906Z,42.90
2018-03-30T11:09:29.333Z,42.20
2018-03-30T11:11:56.753Z,43.66
2018-03-30T11:14:24.508Z,43.05
2018-03-30T11:16:52.714Z,42.46
2018-03-30T11:19:20.108Z,41.94
2018-03-30T11:21:47.579Z,42.13
2018-03-30T11:24:14.983Z,42.66
2018-03-30T11:26:42.442Z,42.29
2018-03-30T11:29:10.103Z,41.28
2018-03-30T11:31:37.574Z,42.69
2018-03-30T11:34:04.999Z,41.70
2018-03-30T11:36:32.427Z,41.49
2018-03-30T11:38:59.800Z,40.75
2018-03-30T11:41:27.460Z,40.79
2018-03-30T11:43:55.335Z,41.40
2018-03-30T11:46:27.009Z,39.88
2018-03-30T11:48:55.263Z,40.40
2018-03-30T11:51:22.664Z,41.04
2018-03-30T11:53:50.048Z,40.81
2018-03-30T11:56:17.437Z,40.26
2018-03-30T11:58:46.845Z,40.32
2018-03-30T12:01:14.259Z,41.08
2018-03-30T12:03:43.662Z,40.45
2018-03-30T12:06:11.044Z,40.96
2018-03-30T12:08:38.497Z,40.63
2018-03-30T12:11:05.885Z,41.87
2018-03-30T12:13:33.286Z,41.06
2018-03-30T12:16:00.660Z,40.95
2018-03-30T12:18:28.426Z,41.76
2018-03-30T12:20:55.842Z,40.94
2018-03-30T12:23:23.258Z,41.23
2018-03-30T12:25:50.734Z,41.26
2018-03-30T12:28:18.128Z,40.40
2018-03-30T12:30:45.526Z,40.57
2018-03-30T12:33:14.303Z,39.91
2018-03-30T12:35:43.881Z,40.60
2018-03-30T12:38:14.028Z,40.64
2018-03-30T12:40:41.443Z,41.35
2018-03-30T12:43:09.555Z,41.38
2018-03-30T12:45:37.910Z,42.15
2018-03-30T12:48:05.495Z,42.40
2018-03-30T12:50:32.885Z,42.06
2018-03-30T12:53:01.558Z,42.44
2018-03-30T12:55:28.954Z,42.27
2018-03-30T12:57:56.329Z,42.20
2018-03-30T13:00:23.716Z,42.10
2018-03-30T13:02:51.123Z,42.52
2018-03-30T13:05:18.529Z,41.85
2018-03-30T13:07:46.921Z,42.52
2018-03-30T13:10:15.610Z,42.38
2018-03-30T13:12:42.998Z,41.84
2018-03-30T13:15:10.761Z,42.27
2018-03-30T13:17:38.154Z,42.07
2018-03-30T13:20:05.568Z,42.41
2018-03-30T13:22:32.985Z,42.99
2018-03-30T13:25:00.625Z,42.48
2018-03-30T13:27:28.120Z,42.72
2018-03-30T13:29:56.643Z,43.45
2018-03-30T13:32:24.041Z,42.70
2018-03-30T13:34:52.106Z,42.85
2018-03-30T13:37:19.582Z,43.03
2018-03-30T13:39:48.205Z,43.15
2018-03-30T13:42:15.614Z,43.77
2018-03-30T13:44:43.044Z,43.32
2018-03-30T13:47:11.821Z,43.83
2018-03-30T13:49:39.209Z,43.59
2018-03-30T13:52:18.411Z,44.39
2018-03-30T13:54:48.578Z,44.39
2018-03-30T13:57:23.188Z,44.46
2018-03-30T13:59:52.059Z,44.38
2018-03-30T14:02:28.009Z,44.59
2018-03-30T14:05:10.565Z,44.78
2018-03-30T14:21:04.355Z,44.88
2018-03-30T14:23:44.492Z,44.78
2018-03-30T14:26:16.464Z,45.07
2018-03-30T14:28:44.605Z,45.04
2018-03-30T14:31:16.434Z,44.95
2018-03-30T14:33:45.611Z,45.15
2018-03-30T14:36:13.073Z,45.00
2018-03-30T14:52:12.716Z,45.56
2018-03-30T14:54:45.836Z,45.92
2018-03-30T15:11:05.436Z,43.62
2018-03-30T15:13:39.658Z,42.51
2018-03-30T15:16:15.348Z,42.34
2018-03-30T15:18:48.437Z,42.18
2018-03-30T15:21:18.747Z,43.14
2018-03-30T15:23:52.763Z,43.06
2018-03-30T15:26:24.017Z,42.67
2018-03-30T15:29:03.942Z,41.24
2018-03-30T15:31:31.782Z,41.13
2018-03-30T15:34:02.653Z,40.46
2018-03-30T15:36:32.833Z,40.37
2018-03-30T15:39:00.249Z,40.90
2018-03-30T15:41:28.628Z,41.65
2018-03-30T15:43:56.208Z,41.45
2018-03-30T15:46:31.010Z,42.25
2018-03-30T15:48:58.711Z,41.05
2018-03-30T15:51:29.814Z,40.84
2018-03-30T15:53:56.942Z,41.81
2018-03-30T15:56:28.199Z,41.22
2018-03-30T15:58:58.265Z,40.51
2018-03-30T16:01:26.007Z,40.43
2018-03-30T16:03:54.819Z,40.84
2018-03-30T16:06:24.359Z,41.47
2018-03-30T16:08:51.729Z,40.64
2018-03-30T16:11:30.932Z,41.85
2018-03-30T16:13:58.318Z,41.98
2018-03-30T16:16:25.791Z,41.55
2018-03-30T16:18:56.527Z,41.73
2018-03-30T16:21:25.366Z,41.92
2018-03-30T16:23:53.338Z,42.30
2018-03-30T16:26:20.194Z,42.39
2018-03-30T16:28:49.448Z,43.18
2018-03-30T16:31:17.227Z,43.49
2018-03-30T16:33:44.185Z,43.61
2018-03-30T16:36:11.073Z,43.79
2018-03-30T16:38:37.947Z,43.82
2018-03-30T16:41:04.888Z,44.03
2018-03-30T16:43:32.389Z,44.42
2018-03-30T16:46:03.464Z,44.44
2018-03-30T16:48:31.422Z,44.34
2018-03-30T16:50:58.688Z,44.43
2018-03-30T16:53:26.397Z,44.36
2018-03-30T16:55:53.263Z,44.37
2018-03-30T16:58:20.121Z,44.56
2018-03-30T17:00:49.644Z,44.49
2018-03-30T17:03:17.355Z,44.70
2018-03-30T17:05:44.289Z,44.82
2018-03-30T17:08:13.024Z,44.45
2018-03-30T17:10:40.010Z,44.62
2018-03-30T17:13:06.865Z,44.76
2018-03-30T17:15:33.708Z,45.14
2018-03-30T17:18:00.570Z,44.91
2018-03-30T17:20:27.417Z,44.78
2018-03-30T17:22:54.273Z,44.74
2018-03-30T17:25:21.119Z,44.76
2018-03-30T17:27:48.792Z,44.63
2018-03-30T17:30:16.817Z,44.52
2018-03-30T17:32:43.674Z,44.88
2018-03-30T17:35:10.854Z,44.81
2018-03-30T17:37:38.224Z,44.51
2018-03-30T17:40:05.068Z,44.51
2018-03-30T17:42:31.925Z,44.81
2018-03-30T17:44:58.793Z,45.06
2018-03-30T17:47:25.656Z,45.61
2018-03-30T17:49:52.511Z,45.37
2018-03-30T17:52:19.347Z,45.13
2018-03-30T17:54:46.201Z,44.96
2018-03-30T17:57:13.068Z,45.00
2018-03-30T17:59:39.906Z,45.07
2018-03-30T18:02:06.745Z,45.88
2018-03-30T18:04:33.601Z,45.54
2018-03-30T18:07:00.945Z,45.69
2018-03-30T18:09:27.862Z,45.88
2018-03-30T18:11:55.600Z,46.34
2018-03-30T18:14:22.459Z,46.73
2018-03-30T18:16:49.306Z,46.97
2018-03-30T18:19:16.162Z,46.92
2018-03-30T18:21:43.017Z,47.60
2018-03-30T18:24:10.427Z,49.37
2018-03-30T18:26:37.264Z,49.66
2018-03-30T18:29:04.162Z,49.46
2018-03-30T18:31:31.014Z,48.63
2018-03-30T18:33:57.908Z,50.51
2018-03-30T18:36:24.798Z,52.65
2018-03-30T18:38:51.652Z,52.19
2018-03-30T18:41:22.667Z,52.78
2018-03-30T18:46:32.294Z,53.30
2018-03-30T18:48:59.175Z,53.40
2018-03-30T18:51:26.055Z,52.95
2018-03-30T18:53:56.138Z,54.23
2018-03-30T18:56:23.057Z,55.28
2018-03-30T18:58:51.649Z,54.73
2018-03-30T19:01:18.497Z,55.33
2018-03-30T19:03:45.490Z,56.66
2018-03-30T19:06:12.380Z,56.87
2018-03-30T19:08:39.217Z,55.99
2018-03-30T19:11:06.062Z,55.04
2018-03-30T19:13:33.427Z,57.75
2018-03-30T19:16:00.315Z,57.12
2018-03-30T19:18:27.852Z,57.70
2018-03-30T19:20:54.707Z,58.75
2018-03-30T19:23:21.556Z,59.10
2018-03-30T19:25:48.408Z,58.75
2018-03-30T19:28:15.282Z,59.38
2018-03-30T19:30:42.518Z,59.04
2018-03-30T19:33:10.794Z,59.39
2018-03-30T19:35:37.689Z,59.62
2018-03-30T19:38:05.764Z,59.93
2018-03-30T19:40:32.615Z,60.25
2018-03-30T19:42:59.492Z,60.86
2018-03-30T19:45:26.334Z,60.31
2018-03-30T19:47:53.760Z,59.65
2018-03-30T19:50:20.613Z,60.66
2018-03-30T19:52:47.779Z,60.67
2018-03-30T19:55:14.735Z,61.07
2018-03-30T19:57:42.772Z,61.86
2018-03-30T20:00:09.670Z,61.06
2018-03-30T20:02:36.514Z,62.01
2018-03-30T20:05:03.880Z,61.73
2018-03-30T20:07:30.744Z,61.75
2018-03-30T20:09:58.264Z,61.69
2018-03-30T20:12:25.126Z,62.72
2018-03-30T20:14:51.980Z,63.14
2018-03-30T20:17:19.181Z,63.20
2018-03-30T20:19:46.075Z,63.28
2018-03-30T20:22:14.693Z,63.48
2018-03-30T20:24:41.570Z,63.61
2018-03-30T20:27:08.428Z,63.73
2018-03-30T20:32:29.489Z,63.39
2018-03-30T20:34:58.950Z,63.94
2018-03-30T20:37:25.829Z,62.69
2018-03-30T20:39:52.683Z,62.17
2018-03-30T20:42:19.802Z,62.36
2018-03-30T20:44:46.663Z,62.83
2018-03-30T20:47:13.495Z,64.82
2018-03-30T20:49:40.335Z,64.78
2018-03-30T20:52:07.202Z,64.97
2018-03-30T20:54:34.112Z,64.95
2018-03-30T20:57:01.465Z,65.45
2018-03-30T20:59:28.589Z,64.94
2018-03-30T21:01:55.466Z,64.96
2018-03-30T21:04:22.315Z,64.06
2018-03-30T21:06:49.209Z,65.02
2018-03-30T21:09:16.083Z,64.36
2018-03-30T21:11:45.054Z,64.22
2018-03-30T21:14:11.954Z,64.11
2018-03-30T21:16:38.820Z,63.87
2018-03-30T21:19:05.725Z,62.09
2018-03-30T21:21:32.636Z,63.40
2018-03-30T21:23:59.544Z,64.27
2018-03-30T21:26:26.389Z,62.95
2018-03-30T21:28:53.311Z,64.71
2018-03-30T21:31:20.172Z,64.36
2018-03-30T21:33:47.793Z,64.01
2018-03-30T21:36:14.712Z,64.06
2018-03-30T21:38:41.582Z,64.15
2018-03-30T21:41:08.454Z,63.75
2018-03-30T21:43:35.306Z,63.68
2018-03-30T21:46:02.170Z,63.55
2018-03-30T21:48:29.095Z,62.88
2018-03-30T21:50:55.953Z,63.21
2018-03-30T21:53:22.825Z,63.37
2018-03-30T21:55:49.678Z,62.03
2018-03-30T21:58:16.622Z,62.54
2018-03-30T22:00:44.256Z,63.80
2018-03-30T22:03:11.111Z,63.89
2018-03-30T22:05:37.986Z,63.83
2018-03-30T22:08:04.861Z,64.45
2018-03-30T22:10:31.726Z,64.49
2018-03-30T22:12:58.580Z,64.44
2018-03-30T22:15:25.445Z,63.26
2018-03-30T22:17:52.291Z,63.95
2018-03-30T22:20:19.188Z,63.31
2018-03-30T22:22:46.033Z,63.00
2018-03-30T22:25:13.764Z,64.11
2018-03-30T22:27:40.607Z,62.86
2018-03-30T22:30:07.464Z,64.06
2018-03-30T22:32:34.681Z,63.95
2018-03-30T22:35:01.605Z,63.40
2018-03-30T22:37:28.439Z,64.13
2018-03-30T22:39:55.291Z,64.42
2018-03-30T22:42:22.161Z,64.79
2018-03-30T22:44:50.721Z,64.86
2018-03-30T22:47:17.830Z,64.46
2018-03-30T22:49:45.094Z,63.46
2018-03-30T22:52:12.040Z,64.51
2018-03-30T22:54:39.611Z,64.44
2018-03-30T22:57:06.520Z,65.62
2018-03-30T22:59:33.387Z,64.66
2018-03-30T23:02:00.230Z,64.71
2018-03-30T23:04:28.825Z,65.05
2018-03-30T23:06:55.685Z,65.35
2018-03-30T23:09:22.570Z,65.64
2018-03-30T23:11:49.908Z,65.02
2018-03-30T23:14:16.825Z,64.64
2018-03-30T23:16:43.669Z,64.90
2018-03-30T23:19:12.832Z,64.59
2018-03-30T23:21:41.236Z,66.63
2018-03-30T23:24:08.109Z,66.31
2018-03-30T23:26:34.990Z,65.28
2018-03-30T23:29:01.849Z,64.02
2018-03-30T23:31:28.698Z,65.71
2018-03-30T23:33:55.568Z,67.00
2018-03-30T23:36:22.419Z,67.85
2018-03-30T23:38:49.282Z,67.86
2018-03-30T23:41:16.593Z,67.81
2018-03-30T23:43:44.688Z,67.75
2018-03-30T23:46:12.629Z,67.07
2018-03-30T23:48:39.485Z,67.25
2018-03-30T23:51:06.348Z,66.77
2018-03-30T23:53:34.025Z,66.68
2018-03-30T23:56:00.897Z,66.77
2018-03-30T23:58:27.768Z,68.15
